Time;durP1;ratioP1;P1;durP2;ratioP2;P2;SDS_P1;SDS_P2;PMS_P1;PMS_P2;Temp;Humidity;BMP_temperature;BMP_pressure;BME280_temperature;BME280_humidity;BME280_pressure;Samples;Min_cycle;Max_cycle;Signal;HPM_P1;HPM_P2
2022/04/20 00:02:03;;;;;;;2.50;1.80;;;;;;;9.00;47.49;97796.88;4996013;28;20330;-70
2022/04/20 00:04:29;;;;;;;4.37;2.20;;;;;;;9.00;48.16;97802.19;4995196;28;20203;-70
2022/04/20 00:06:55;;;;;;;3.40;2.47;;;;;;;8.94;48.93;97801.19;4995040;28;20568;-70
2022/04/20 00:09:22;;;;;;;3.47;2.30;;;;;;;8.85;49.70;97802.47;4995080;28;20642;-70
2022/04/20 00:11:48;;;;;;;4.13;2.50;;;;;;;8.85;50.08;97796.34;4995056;28;20305;-70
2022/04/20 00:14:14;;;;;;;2.90;2.60;;;;;;;8.87;49.93;97795.09;4993967;28;20219;-70
2022/04/20 00:16:41;;;;;;;3.60;2.50;;;;;;;8.76;50.45;97800.28;4994596;28;20215;-70
2022/04/20 00:19:07;;;;;;;3.53;2.67;;;;;;;8.76;50.88;97792.34;4994615;28;20214;-70
2022/04/20 00:21:34;;;;;;;3.10;2.50;;;;;;;8.67;51.39;97788.31;4995104;28;20211;-71
2022/04/20 00:24:00;;;;;;;3.00;2.53;;;;;;;8.66;52.20;97792.00;4994921;28;20203;-71
2022/04/20 00:26:26;;;;;;;5.13;2.77;;;;;;;8.65;51.87;97785.06;4994675;28;20214;-70
2022/04/20 00:28:53;;;;;;;5.80;2.60;;;;;;;8.67;52.10;97796.25;4994608;28;20674;-70
2022/04/20 00:31:19;;;;;;;3.67;2.87;;;;;;;8.62;52.43;97791.63;4994360;28;20684;-70
2022/04/20 00:33:46;;;;;;;5.53;2.87;;;;;;;8.64;53.66;97786.91;4994638;28;20207;-70
2022/04/20 00:36:12;;;;;;;2.90;2.70;;;;;;;8.60;53.06;97793.66;4994654;28;20213;-71
2022/04/20 00:38:39;;;;;;;3.07;2.70;;;;;;;8.54;53.29;97794.50;4994761;28;20228;-70
2022/04/20 00:41:06;;;;;;;3.30;2.60;;;;;;;8.58;53.90;97800.19;4994600;28;20212;-70
2022/04/20 00:43:33;;;;;;;4.10;2.80;;;;;;;8.53;54.27;97794.72;4994551;28;20309;-70
2022/04/20 00:46:01;;;;;;;2.93;2.50;;;;;;;8.47;54.00;97796.38;4994313;28;20210;-70
2022/04/20 00:48:28;;;;;;;3.43;3.10;;;;;;;8.43;54.30;97797.84;4994234;28;20234;-70
2022/04/20 00:50:54;;;;;;;2.60;2.40;;;;;;;8.48;53.82;97799.84;4994412;28;20211;-71
2022/04/20 00:53:21;;;;;;;4.27;3.10;;;;;;;8.41;54.51;97796.41;4994630;28;20207;-71
2022/04/20 00:55:47;;;;;;;4.67;2.90;;;;;;;8.39;54.54;97793.16;4994256;28;20235;-71
2022/04/20 00:58:13;;;;;;;3.87;3.00;;;;;;;8.36;54.41;97796.22;4994226;28;20234;-70
2022/04/20 01:00:40;;;;;;;2.83;2.63;;;;;;;8.28;54.91;97797.28;4994425;28;20211;-70
2022/04/20 01:03:07;;;;;;;3.27;2.93;;;;;;;8.26;55.17;97798.50;4993876;28;20674;-70
2022/04/20 01:05:33;;;;;;;4.13;3.00;;;;;;;8.24;55.29;97789.97;4994503;28;20262;-71
2022/04/20 01:08:00;;;;;;;3.83;2.90;;;;;;;8.22;54.87;97792.00;4993836;28;20714;-70
2022/04/20 01:10:26;;;;;;;5.13;2.67;;;;;;;8.18;54.94;97794.25;4994008;28;20210;-70
2022/04/20 01:12:53;;;;;;;4.20;3.10;;;;;;;8.16;55.07;97788.34;4993851;28;20218;-70
2022/04/20 01:15:19;;;;;;;2.87;2.67;;;;;;;8.12;55.30;97786.31;4994289;28;20223;-71
2022/04/20 01:17:46;;;;;;;3.93;3.10;;;;;;;7.96;56.03;97789.44;4993808;28;20231;-71
2022/04/20 01:20:14;;;;;;;5.33;2.83;;;;;;;7.95;56.57;97788.63;4994646;28;20214;-71
2022/04/20 01:22:42;;;;;;;3.27;2.97;;;;;;;7.96;55.92;97792.09;4994363;28;20215;-70
2022/04/20 01:25:09;;;;;;;2.93;2.70;;;;;;;7.99;55.95;97789.00;4995960;28;20257;-70
2022/04/20 01:27:41;;;;;;;2.97;2.77;;;;;;;7.90;56.31;97790.25;4997922;28;20230;-71
2022/04/20 01:30:08;;;;;;;3.57;3.27;;;;;;;7.81;56.64;97786.22;4998137;28;20207;-70
2022/04/20 01:32:35;;;;;;;5.00;2.93;;;;;;;7.76;57.14;97786.03;4998121;28;20207;-70
2022/04/20 01:35:01;;;;;;;3.13;2.80;;;;;;;7.76;57.16;97780.75;4998335;28;20230;-70
2022/04/20 01:37:28;;;;;;;3.30;3.00;;;;;;;7.75;57.38;97787.06;4997877;28;20223;-70
2022/04/20 01:39:55;;;;;;;4.30;2.77;;;;;;;7.66;57.41;97788.28;4997947;28;20345;-71
2022/04/20 01:42:21;;;;;;;6.17;2.87;;;;;;;7.69;57.05;97785.25;4997906;28;20233;-71
2022/04/20 01:44:48;;;;;;;6.50;2.80;;;;;;;7.58;58.14;97793.81;4997508;28;20199;-70
2022/04/20 01:47:14;;;;;;;4.27;2.77;;;;;;;7.55;57.79;97786.28;4997409;28;20231;-70
2022/04/20 01:49:41;;;;;;;3.33;3.03;;;;;;;7.50;57.85;97794.00;4997472;28;20693;-70
2022/04/20 01:52:07;;;;;;;3.63;3.07;;;;;;;7.50;57.80;97784.25;4997710;28;20301;-70
2022/04/20 01:54:34;;;;;;;3.57;2.90;;;;;;;7.54;57.80;97784.66;4997610;28;20227;-70
2022/04/20 01:57:00;;;;;;;5.23;3.37;;;;;;;7.48;58.21;97788.13;4997227;28;20706;-70
2022/04/20 01:59:27;;;;;;;3.10;2.80;;;;;;;7.50;58.46;97794.00;4997226;28;20215;-71
2022/04/20 02:04:37;;;;;;;4.67;2.60;;;;;;;7.51;58.30;97787.72;4997588;28;20214;-71
2022/04/20 02:07:03;;;;;;;5.27;3.40;;;;;;;7.36;58.75;97787.09;4997232;28;20235;-70
2022/04/20 02:09:30;;;;;;;3.33;3.10;;;;;;;7.41;58.97;97787.31;4997385;28;20207;-71
2022/04/20 02:11:56;;;;;;;3.13;2.83;;;;;;;7.33;59.67;97790.19;4997005;28;20564;-70
2022/04/20 02:14:22;;;;;;;3.20;2.90;;;;;;;7.25;59.09;97793.03;4996867;28;20693;-71
2022/04/20 02:16:49;;;;;;;4.00;2.83;;;;;;;7.33;59.41;97790.19;4997122;28;20249;-70
2022/04/20 02:19:15;;;;;;;3.20;2.90;;;;;;;7.35;58.88;97794.25;4997447;28;20211;-70
2022/04/20 02:21:42;;;;;;;3.50;2.70;;;;;;;7.40;58.68;97780.41;4997198;28;20575;-70
2022/04/20 02:24:08;;;;;;;5.20;3.07;;;;;;;7.20;59.37;97787.53;4997193;28;20207;-70
2022/04/20 02:26:34;;;;;;;3.20;3.00;;;;;;;7.27;59.07;97788.34;4996899;28;20211;-70
2022/04/20 02:29:01;;;;;;;5.90;3.00;;;;;;;7.08;60.18;97795.28;4996787;28;20223;-70
2022/04/20 02:31:27;;;;;;;3.07;2.57;;;;;;;7.03;60.28;97791.59;4996962;28;20233;-70
2022/04/20 02:33:54;;;;;;;5.13;3.00;;;;;;;7.01;60.86;97791.00;4996899;28;20210;-70
2022/04/20 02:36:20;;;;;;;4.80;3.37;;;;;;;6.96;61.87;97798.69;4995609;28;20227;-70
2022/04/20 02:38:47;;;;;;;3.27;2.97;;;;;;;6.89;61.54;97793.44;4997560;28;20238;-70
2022/04/20 02:41:14;;;;;;;4.67;3.03;;;;;;;6.92;61.16;97794.88;4997098;28;20211;-70
2022/04/20 02:43:41;;;;;;;4.80;3.00;;;;;;;6.84;60.92;97787.91;4996459;28;20552;-70
2022/04/20 02:46:07;;;;;;;3.90;3.60;;;;;;;6.85;61.54;97783.47;4996701;28;20209;-70
2022/04/20 02:48:34;;;;;;;4.10;3.07;;;;;;;6.76;61.44;97789.94;4996719;28;20229;-70
2022/04/20 02:51:00;;;;;;;3.17;2.87;;;;;;;6.78;62.21;97794.00;4996336;28;20222;-70
2022/04/20 02:53:26;;;;;;;3.17;2.87;;;;;;;6.77;62.86;97784.47;4996536;28;20294;-70
2022/04/20 02:55:53;;;;;;;6.27;3.13;;;;;;;6.72;62.13;97788.72;4996144;28;20230;-71
2022/04/20 02:58:19;;;;;;;3.47;3.10;;;;;;;6.71;62.91;97782.66;4996336;28;20234;-70
2022/04/20 03:00:46;;;;;;;4.27;3.10;;;;;;;6.67;63.36;97781.41;4996202;28;20214;-70
2022/04/20 03:03:13;;;;;;;5.37;3.10;;;;;;;6.64;63.11;97786.25;4996315;28;20202;-70
2022/04/20 03:05:39;;;;;;;4.20;3.10;;;;;;;6.55;62.99;97787.47;4996082;28;20667;-70
2022/04/20 03:08:06;;;;;;;3.77;3.40;;;;;;;6.44;63.69;97791.53;4995909;28;20238;-70
2022/04/20 03:10:32;;;;;;;5.77;3.37;;;;;;;6.39;63.65;97793.94;4996230;28;20215;-70
2022/04/20 03:12:59;;;;;;;5.60;3.20;;;;;;;6.41;64.83;97793.72;4996224;28;20211;-70
2022/04/20 03:15:25;;;;;;;4.40;3.17;;;;;;;6.33;64.26;97796.56;4995631;28;20223;-70
2022/04/20 03:17:51;;;;;;;3.27;2.80;;;;;;;6.22;64.82;97789.22;4995705;28;20231;-70
2022/04/20 03:20:18;;;;;;;3.77;3.20;;;;;;;6.16;65.07;97795.28;4995449;28;20214;-70
2022/04/20 03:22:44;;;;;;;3.40;3.10;;;;;;;6.01;65.52;97789.34;4995596;28;20667;-70
2022/04/20 03:25:11;;;;;;;3.63;3.30;;;;;;;6.02;65.82;97797.03;4995662;28;20204;-70
2022/04/20 03:27:37;;;;;;;4.83;3.40;;;;;;;5.83;66.71;97796.97;4995361;28;20278;-70
2022/04/20 03:30:04;;;;;;;3.00;2.70;;;;;;;5.89;66.54;97798.81;4995520;28;20685;-70
2022/04/20 03:32:30;;;;;;;3.90;3.40;;;;;;;5.90;66.92;97797.81;4995726;28;20211;-70
2022/04/20 03:34:57;;;;;;;3.30;3.00;;;;;;;5.91;66.58;97791.50;4995944;28;20307;-70
2022/04/20 03:37:23;;;;;;;5.10;3.20;;;;;;;5.86;67.67;97797.38;4995538;28;20227;-70
2022/04/20 03:39:50;;;;;;;4.93;2.90;;;;;;;5.88;65.90;97798.00;4995932;28;20222;-70
2022/04/20 03:42:16;;;;;;;3.77;3.30;;;;;;;5.82;65.97;97790.03;4995589;28;20214;-70
2022/04/20 03:44:42;;;;;;;4.90;3.40;;;;;;;5.88;66.12;97794.56;4995388;28;20206;-70
2022/04/20 03:47:09;;;;;;;4.23;3.17;;;;;;;5.83;66.69;97796.97;4994317;28;20250;-70
2022/04/20 03:49:35;;;;;;;7.00;3.50;;;;;;;5.88;65.86;97794.56;4995507;28;20207;-70
2022/04/20 03:52:02;;;;;;;3.47;3.00;;;;;;;5.87;66.49;97785.00;4995120;28;20207;-70
2022/04/20 03:54:28;;;;;;;4.57;3.17;;;;;;;5.82;66.16;97790.03;4994956;28;20573;-70
2022/04/20 03:57:07;;;;;;;3.70;3.40;;;;;;;5.83;66.92;97781.16;4994586;28;20239;-70
2022/04/20 03:59:38;;;;;;;4.53;3.40;;;;;;;5.78;66.23;97781.69;4995239;28;20206;-70
2022/04/20 04:02:06;;;;;;;3.63;3.13;;;;;;;5.65;66.21;97786.09;4995109;28;20196;-71
2022/04/20 04:04:32;;;;;;;3.40;3.10;;;;;;;5.71;66.78;97787.94;4995121;28;20203;-70
2022/04/20 04:06:59;;;;;;;6.60;3.00;;;;;;;5.86;65.23;97786.00;4995017;28;20224;-70
2022/04/20 04:09:25;;;;;;;4.83;3.20;;;;;;;6.10;63.92;97788.16;4994764;28;20678;-70
2022/04/20 04:11:52;;;;;;;3.57;3.13;;;;;;;6.25;62.59;97796.75;4994993;28;20204;-70
2022/04/20 04:14:18;;;;;;;3.50;2.90;;;;;;;6.11;64.01;97789.78;4994960;28;20558;-70
2022/04/20 04:16:45;;;;;;;4.43;3.17;;;;;;;6.00;64.63;97785.06;4994497;28;20586;-70
2022/04/20 04:19:12;;;;;;;4.03;3.00;;;;;;;5.87;65.41;97790.28;4994919;28;20218;-70
2022/04/20 04:21:39;;;;;;;3.53;3.07;;;;;;;5.94;65.21;97791.13;4994579;28;20207;-70
2022/04/20 04:24:07;;;;;;;3.20;2.90;;;;;;;6.02;64.95;97785.69;4994551;28;20207;-70
2022/04/20 04:26:34;;;;;;;4.93;3.40;;;;;;;5.94;64.53;97785.84;4994265;28;20262;-70
2022/04/20 04:29:00;;;;;;;3.70;3.37;;;;;;;5.71;66.11;97795.84;4994529;28;20568;-70
2022/04/20 04:31:27;;;;;;;3.87;3.43;;;;;;;5.73;66.70;97793.81;4994388;28;20213;-70
2022/04/20 04:33:54;;;;;;;5.93;3.67;;;;;;;5.66;67.34;97791.13;4994756;28;20211;-70
2022/04/20 04:36:20;;;;;;;4.60;3.43;;;;;;;5.70;66.39;97794.22;4993972;28;20226;-70
2022/04/20 04:38:47;;;;;;;4.20;3.00;;;;;;;6.03;64.55;97792.59;4993889;28;20242;-70
2022/04/20 04:41:13;;;;;;;5.13;3.13;;;;;;;6.13;64.40;97796.50;4994396;28;20214;-70
2022/04/20 04:43:40;;;;;;;3.57;3.27;;;;;;;6.03;63.90;97803.97;4993749;28;20267;-70
2022/04/20 04:48:50;;;;;;;3.90;3.10;;;;;;;5.96;64.23;97807.56;4993704;28;20238;-70
2022/04/20 04:51:16;;;;;;;3.33;3.03;;;;;;;5.95;64.62;97800.66;4994422;28;20207;-70
2022/04/20 04:53:44;;;;;;;3.40;3.00;;;;;;;5.93;64.88;97802.69;4993971;28;20285;-70
2022/04/20 04:56:10;;;;;;;4.30;3.27;;;;;;;5.75;65.46;97810.28;4993579;28;20319;-70
2022/04/20 04:58:37;;;;;;;3.60;3.30;;;;;;;5.82;64.78;97803.22;4993362;28;20603;-70
2022/04/20 05:01:03;;;;;;;3.33;2.80;;;;;;;5.83;64.73;97803.03;4993347;28;20377;-70
2022/04/20 05:03:30;;;;;;;3.47;3.17;;;;;;;5.87;64.77;97804.28;4994491;28;20215;-70
2022/04/20 05:05:56;;;;;;;4.47;3.13;;;;;;;5.82;64.20;97806.69;4994017;28;20207;-71
2022/04/20 05:08:22;;;;;;;4.30;3.20;;;;;;;5.89;64.23;97801.47;4993646;28;20601;-71
2022/04/20 05:10:48;;;;;;;5.97;3.30;;;;;;;5.81;64.27;97810.34;4994773;28;20229;-71
2022/04/20 05:13:15;;;;;;;3.43;3.17;;;;;;;6.00;62.94;97807.00;4993749;28;20229;-69
2022/04/20 05:15:41;;;;;;;5.33;3.17;;;;;;;5.97;63.47;97802.09;4993729;28;20226;-69
2022/04/20 05:18:07;;;;;;;3.87;3.13;;;;;;;6.00;63.69;97806.16;4993536;28;20223;-71
2022/04/20 05:20:34;;;;;;;5.87;3.30;;;;;;;6.02;63.08;97804.16;4993798;28;20207;-71
2022/04/20 05:23:00;;;;;;;5.03;3.30;;;;;;;6.12;63.02;97807.25;4993470;28;20207;-70
2022/04/20 05:25:26;;;;;;;4.13;3.60;;;;;;;6.12;63.84;97808.06;4993478;28;20199;-69
2022/04/20 05:27:53;;;;;;;5.53;3.40;;;;;;;6.23;63.36;97809.31;4993616;28;20235;-69
2022/04/20 05:30:19;;;;;;;6.17;3.40;;;;;;;6.18;63.40;97812.56;4993710;28;20214;-69
2022/04/20 05:32:45;;;;;;;3.67;3.20;;;;;;;6.31;63.13;97809.97;4993369;28;20255;-69
2022/04/20 05:35:12;;;;;;;3.80;3.43;;;;;;;6.38;62.89;97804.72;4993425;28;20613;-69
2022/04/20 05:43:06;;;;;;;4.03;3.30;;;;;;;6.54;63.12;97817.53;4993786;28;20174;-69
2022/04/20 05:45:33;;;;;;;4.00;3.53;;;;;;;6.62;62.88;97820.00;4994258;28;20207;-69
2022/04/20 05:47:59;;;;;;;5.57;3.20;;;;;;;6.67;63.32;97812.28;4993479;28;20693;-69
2022/04/20 05:50:26;;;;;;;5.27;3.37;;;;;;;6.57;63.68;97817.97;4993157;28;20222;-69
2022/04/20 05:52:53;;;;;;;6.50;3.87;;;;;;;6.80;63.01;97818.44;4993512;28;20238;-69
2022/04/20 05:55:20;;;;;;;6.00;3.63;;;;;;;6.71;62.80;97822.28;4993232;28;20214;-69
2022/04/20 05:57:47;;;;;;;7.47;3.80;;;;;;;6.75;61.65;97826.13;4993215;28;20281;-69
2022/04/20 06:00:14;;;;;;;3.87;3.53;;;;;;;6.59;63.16;97828.31;4993107;28;20210;-68
2022/04/20 06:02:41;;;;;;;7.47;3.30;;;;;;;6.80;61.74;97836.91;4993434;28;20207;-69
2022/04/20 06:05:08;;;;;;;7.83;3.70;;;;;;;6.92;62.52;97829.22;4993170;28;20233;-69
2022/04/20 06:07:35;;;;;;;4.93;3.23;;;;;;;6.71;62.17;97832.84;4992819;28;20788;-69
2022/04/20 06:10:01;;;;;;;6.73;3.90;;;;;;;6.83;62.45;97838.34;4992885;28;20681;-69
2022/04/20 06:12:27;;;;;;;6.80;3.43;;;;;;;6.84;62.56;97838.13;4996983;28;20215;-69
2022/04/20 06:14:54;;;;;;;3.80;3.30;;;;;;;7.24;61.93;97836.34;4996949;28;20203;-69
2022/04/20 06:17:20;;;;;;;3.83;3.10;;;;;;;6.89;59.23;97837.53;4996363;28;20322;-68
2022/04/20 06:19:47;;;;;;;4.13;3.27;;;;;;;7.16;60.01;97841.84;4996579;28;20229;-69
2022/04/20 06:22:13;;;;;;;3.63;3.17;;;;;;;7.25;60.66;97841.44;4996837;28;20207;-69
2022/04/20 06:24:39;;;;;;;3.80;3.40;;;;;;;7.17;59.19;97835.53;4997157;28;20230;-69
2022/04/20 06:27:07;;;;;;;4.10;3.10;;;;;;;7.28;59.60;97837.59;4996197;28;20243;-69
2022/04/20 06:29:34;;;;;;;3.37;3.07;;;;;;;7.38;57.51;97832.69;4996518;28;20207;-69
2022/04/20 06:32:01;;;;;;;3.37;3.07;;;;;;;7.47;57.89;97834.91;4996188;28;20214;-68
2022/04/20 06:34:27;;;;;;;3.90;3.13;;;;;;;7.54;57.41;97842.84;4996894;28;20222;-69
2022/04/20 06:36:54;;;;;;;4.00;3.33;;;;;;;7.45;57.52;97833.47;4996309;28;20239;-68
2022/04/20 06:39:20;;;;;;;3.40;3.10;;;;;;;7.53;58.21;97830.63;4996546;28;20226;-70
2022/04/20 06:41:46;;;;;;;4.43;2.93;;;;;;;7.49;57.72;97832.06;4996772;28;20207;-70
2022/04/20 06:44:16;;;;;;;3.40;3.10;;;;;;;7.52;57.54;97831.66;5015746;28;20211;-70
2022/04/20 06:49:32;;;;;;;3.77;3.37;;;;;;;7.67;56.90;97819.84;5012100;28;20214;-70
2022/04/20 07:00:34;;;;;;;3.10;2.80;;;;;;;8.11;56.14;97811.19;5015904;28;20244;-68
2022/04/20 07:03:18;;;;;;;3.20;2.83;;;;;;;8.24;56.12;97824.41;5015035;28;20213;-68
2022/04/20 07:05:46;;;;;;;3.53;2.90;;;;;;;8.27;55.01;97813.38;5015268;28;20502;-71
2022/04/20 07:08:17;;;;;;;3.53;3.23;;;;;;;8.24;55.08;97816.47;5015308;28;20358;-69
2022/04/20 07:10:47;;;;;;;3.53;3.00;;;;;;;8.42;54.75;97806.00;5015175;28;20241;-69
2022/04/20 07:13:16;;;;;;;3.13;2.80;;;;;;;8.52;54.33;97812.47;5015280;28;20236;-69
2022/04/20 07:15:42;;;;;;;3.47;2.77;;;;;;;8.42;54.38;97800.69;5015494;28;20206;-69
2022/04/20 07:18:09;;;;;;;3.27;2.90;;;;;;;8.69;53.82;97804.81;5015114;28;20226;-69
2022/04/20 07:20:53;;;;;;;3.20;2.50;;;;;;;8.49;52.04;97806.75;5015098;28;20309;-69
2022/04/20 07:23:22;;;;;;;3.30;2.90;;;;;;;8.64;52.75;97804.66;5005892;28;20207;-68
2022/04/20 07:25:49;;;;;;;3.13;2.87;;;;;;;8.79;52.42;97800.66;5014873;28;20658;-69
2022/04/20 07:28:21;;;;;;;3.50;2.60;;;;;;;8.93;52.56;97798.75;5014692;28;20325;-69
2022/04/20 07:30:55;;;;;;;3.30;2.93;;;;;;;9.03;53.09;97801.72;5015141;28;20218;-68
2022/04/20 07:33:25;;;;;;;3.40;2.83;;;;;;;9.14;52.13;97809.00;5014750;28;20211;-68
2022/04/20 07:41:39;;;;;;;2.50;2.30;;;;;;;9.31;50.40;97805.59;5014499;28;20214;-68
2022/04/20 07:44:06;;;;;;;3.97;2.60;;;;;;;9.27;50.56;97806.22;5014520;28;20200;-68
2022/04/20 07:46:32;;;;;;;3.33;2.60;;;;;;;9.35;51.24;97813.91;5014426;28;20210;-68
2022/04/20 07:50:17;;;;;;;3.73;2.57;;;;;;;9.24;51.87;97811.97;5014757;28;20207;-69
2022/04/20 07:51:45;;;;;;;2.43;2.17;;;;;;;9.56;50.19;97822.28;5013636;28;20206;-68
2022/04/20 07:54:11;;;;;;;3.40;2.63;;;;;;;9.52;49.26;97821.13;4995138;28;20230;-69
2022/04/20 07:56:44;;;;;;;3.10;2.80;;;;;;;9.51;50.28;97826.66;4994808;28;20277;-68
2022/04/20 07:59:12;;;;;;;3.13;2.80;;;;;;;9.60;50.79;97820.03;4994794;28;20196;-68
2022/04/20 08:01:52;;;;;;;3.20;2.47;;;;;;;9.54;49.95;97821.72;4994856;28;20804;-68
2022/04/20 08:04:22;;;;;;;3.57;2.97;;;;;;;9.71;49.27;97824.63;4994918;28;20192;-69
2022/04/20 08:06:52;;;;;;;2.50;2.30;;;;;;;9.86;48.17;97817.13;4994345;28;20227;-68
2022/04/20 08:10:00;;;;;;;3.27;2.63;;;;;;;9.57;48.34;97817.81;4994484;28;20306;-68
2022/04/20 08:12:29;;;;;;;3.40;2.47;;;;;;;9.81;47.43;97816.97;4988573;28;20217;-68
2022/04/20 08:14:56;;;;;;;3.43;2.27;;;;;;;10.02;46.84;97811.22;4994654;28;20270;-68
2022/04/20 08:17:33;;;;;;;3.00;2.70;;;;;;;9.87;46.76;97819.53;4994322;28;20242;-69
2022/04/20 08:20:00;;;;;;;5.60;2.60;;;;;;;10.04;47.34;97822.44;4994228;28;20214;-69
2022/04/20 08:22:42;;;;;;;3.00;2.70;;;;;;;10.15;47.90;97822.56;4994408;28;20678;-67
2022/04/20 08:25:34;;;;;;;3.03;2.73;;;;;;;10.08;46.48;97818.34;4994631;28;20196;-68
2022/04/20 08:28:14;;;;;;;3.20;2.57;;;;;;;10.13;46.48;97811.34;4994144;28;20249;-68
2022/04/20 08:36:48;;;;;;;2.63;2.43;;;;;;;10.54;45.49;97819.41;4956570;28;20224;-68
2022/04/20 08:49:08;;;;;;;2.80;2.60;;;;;;;10.45;43.87;97818.09;4956798;28;20204;-68
2022/04/20 08:54:49;;;;;;;2.50;2.30;;;;;;;10.68;43.44;97820.06;4994800;28;20265;-68
2022/04/20 08:57:42;;;;;;;2.57;2.37;;;;;;;10.78;44.84;97813.16;4993652;28;20234;-70
2022/04/20 09:03:03;;;;;;;3.57;2.80;;;;;;;10.87;45.00;97811.00;4991710;28;20294;-68
2022/04/20 09:05:32;;;;;;;3.30;3.00;;;;;;;10.98;46.03;97796.13;4993663;28;20309;-69
2022/04/20 09:08:02;;;;;;;4.73;2.77;;;;;;;10.93;45.22;97805.59;4993650;28;20226;-70
2022/04/20 09:10:28;;;;;;;4.30;3.07;;;;;;;11.22;46.27;97803.09;4993965;28;20290;-68
2022/04/20 09:13:09;;;;;;;3.47;2.73;;;;;;;11.39;44.83;97793.41;4993638;28;20310;-68
2022/04/20 09:15:37;;;;;;;3.77;2.83;;;;;;;11.47;44.38;97785.06;4993705;28;20192;-68
2022/04/20 09:18:04;;;;;;;3.30;3.00;;;;;;;11.66;44.42;97790.09;4993719;28;20235;-69
2022/04/20 09:20:31;;;;;;;2.70;2.50;;;;;;;11.88;42.55;97787.63;4994022;28;20218;-68
2022/04/20 09:23:03;;;;;;;4.00;2.03;;;;;;;11.92;42.77;97794.13;4993937;28;20293;-68
2022/04/20 09:25:35;;;;;;;2.60;2.40;;;;;;;11.98;42.02;97794.00;4993761;28;20221;-68
2022/04/20 09:28:07;;;;;;;4.50;2.53;;;;;;;11.79;41.30;97803.16;4993586;28;20235;-68
2022/04/20 09:30:41;;;;;;;6.10;2.40;;;;;;;11.96;40.32;97790.78;4993956;28;20191;-69
2022/04/20 09:33:10;;;;;;;4.23;2.10;;;;;;;12.08;40.36;97798.75;4993775;28;20195;-68
2022/04/20 09:35:46;;;;;;;2.87;2.10;;;;;;;12.43;40.19;97791.47;4993536;28;20211;-68
2022/04/20 09:38:14;;;;;;;2.33;2.00;;;;;;;12.57;39.34;97787.50;4993523;28;20310;-69
2022/04/20 09:40:40;;;;;;;3.23;2.03;;;;;;;12.39;38.14;97791.13;4993263;28;20261;-69
2022/04/20 09:43:18;;;;;;;2.53;2.30;;;;;;;12.78;38.40;97790.28;4993481;28;20210;-69
2022/04/20 09:46:01;;;;;;;2.37;2.17;;;;;;;12.57;38.16;97790.94;4994870;28;20195;-69
2022/04/20 09:51:13;;;;;;;3.20;2.30;;;;;;;12.80;38.29;97782.06;4996713;28;20672;-69
2022/04/20 09:53:41;;;;;;;2.83;2.03;;;;;;;12.88;39.41;97784.34;4997747;28;20210;-69
2022/04/20 09:56:27;;;;;;;2.73;2.27;;;;;;;12.81;37.01;97778.34;4997367;28;20262;-70
2022/04/20 09:59:02;;;;;;;3.27;2.47;;;;;;;12.59;38.21;97778.22;4997465;28;20196;-66
2022/04/20 10:01:37;;;;;;;2.53;2.03;;;;;;;12.76;38.48;97775.59;4997055;28;20207;-69
2022/04/20 10:04:05;;;;;;;2.70;2.50;;;;;;;12.65;38.91;97779.09;4997508;28;20192;-70
2022/04/20 10:06:32;;;;;;;5.50;2.43;;;;;;;12.59;39.11;97769.38;4997324;28;20205;-70
2022/04/20 10:09:00;;;;;;;3.73;2.47;;;;;;;12.89;38.00;97776.06;4997283;28;20208;-70
2022/04/20 10:11:27;;;;;;;2.30;2.10;;;;;;;13.15;37.24;97780.84;4997033;28;20683;-67
2022/04/20 10:16:40;;;;;;;2.73;2.47;;;;;;;12.68;37.54;97762.63;4996355;28;20588;-69
2022/04/20 10:19:13;;;;;;;2.73;2.40;;;;;;;13.26;37.40;97765.81;4996959;28;20208;-70
2022/04/20 10:21:53;;;;;;;2.80;2.20;;;;;;;13.08;37.33;97756.19;4997003;28;20188;-71
2022/04/20 10:24:25;;;;;;;2.83;2.20;;;;;;;13.22;37.96;97759.31;4995956;28;20243;-70
2022/04/20 10:26:52;;;;;;;2.53;2.30;;;;;;;13.30;37.97;97762.41;4996555;28;20691;-69
2022/04/20 10:29:48;;;;;;;2.20;2.00;;;;;;;13.16;36.78;97757.63;4995421;28;20270;-70
2022/04/20 10:32:22;;;;;;;3.43;2.60;;;;;;;13.31;38.01;97744.53;4996726;28;20204;-70
2022/04/20 10:34:50;;;;;;;3.97;2.50;;;;;;;13.12;37.18;97743.94;4996646;28;20227;-70
2022/04/20 10:37:21;;;;;;;8.40;2.47;;;;;;;13.48;36.46;97742.66;4995132;28;20287;-70
2022/04/20 10:39:47;;;;;;;4.00;2.57;;;;;;;13.57;37.38;97741.19;4996677;28;20285;-70
2022/04/20 10:42:16;;;;;;;2.40;2.20;;;;;;;13.71;36.64;97732.56;4996428;28;20211;-70
2022/04/20 10:45:00;;;;;;;3.07;2.50;;;;;;;13.69;34.92;97734.69;4996450;28;20217;-68
2022/04/20 10:47:42;;;;;;;2.83;2.53;;;;;;;13.44;36.72;97739.69;4996505;28;20261;-68
2022/04/20 10:50:26;;;;;;;2.70;2.00;;;;;;;13.71;36.13;97734.44;4996565;28;20196;-70
2022/04/20 10:52:58;;;;;;;2.53;2.10;;;;;;;13.73;34.54;97740.34;4996241;28;20302;-70
2022/04/20 10:55:31;;;;;;;2.10;1.90;;;;;;;13.60;33.95;97743.34;4996236;28;20202;-70
2022/04/20 10:58:02;;;;;;;2.17;2.07;;;;;;;13.30;34.17;97718.88;4995097;28;20237;-70
2022/04/20 11:00:34;;;;;;;2.53;1.97;;;;;;;14.00;35.08;97726.03;4995869;28;20642;-70
2022/04/20 11:03:06;;;;;;;2.40;2.13;;;;;;;13.63;33.03;97730.34;4996252;28;20277;-70
2022/04/20 11:05:49;;;;;;;4.03;2.07;;;;;;;13.47;34.52;97715.13;4995971;28;20226;-72
2022/04/20 11:08:16;;;;;;;2.07;1.87;;;;;;;13.64;34.45;97718.59;4996288;28;20234;-72
2022/04/20 11:18:38;;;;;;;2.00;1.90;;;;;;;13.48;34.75;97716.75;4996917;28;20229;-71
2022/04/20 11:19:13;;;;;;;2.23;1.80;;;;;;;13.59;35.70;97707.84;4995862;28;20177;-71
2022/04/20 11:22:08;;;;;;;2.37;2.00;;;;;;;13.78;33.93;97709.16;4995586;28;20209;-71
2022/04/20 11:24:34;;;;;;;3.17;2.00;;;;;;;13.91;34.22;97695.44;4995706;28;20191;-71
2022/04/20 11:27:02;;;;;;;2.60;2.40;;;;;;;13.94;33.76;97711.00;4995699;28;20233;-71
2022/04/20 11:29:29;;;;;;;4.00;2.70;;;;;;;14.06;33.60;97700.97;4995454;28;20209;-71
2022/04/20 11:32:00;;;;;;;2.37;2.13;;;;;;;14.22;35.49;97692.09;4995732;28;20214;-71
2022/04/20 11:34:28;;;;;;;2.10;2.00;;;;;;;14.21;34.33;97695.03;4995733;28;20205;-71
2022/04/20 11:37:00;;;;;;;2.53;1.90;;;;;;;13.74;33.03;97688.53;4995456;28;20648;-71
2022/04/20 11:39:28;;;;;;;2.27;2.07;;;;;;;14.13;33.79;97687.41;4995468;28;20210;-71
2022/04/20 11:41:57;;;;;;;2.40;2.20;;;;;;;13.80;33.35;97687.53;4994953;28;20280;-70
2022/04/20 11:44:26;;;;;;;4.47;2.30;;;;;;;13.92;36.24;97683.69;4995735;28;20210;-71
2022/04/20 11:47:00;;;;;;;3.20;2.27;;;;;;;14.04;34.05;97676.38;4995493;28;20226;-71
2022/04/20 11:49:35;;;;;;;2.80;2.60;;;;;;;13.65;34.27;97677.47;4995870;28;20328;-70
2022/04/20 11:52:06;;;;;;;2.40;2.20;;;;;;;13.89;35.17;97678.03;4995405;28;20264;-71
2022/04/20 11:54:34;;;;;;;3.43;2.33;;;;;;;13.91;32.98;97675.91;4995397;28;20195;-71
2022/04/20 11:57:00;;;;;;;3.70;2.20;;;;;;;13.98;31.87;97684.56;4995127;28;20600;-71
2022/04/20 11:59:28;;;;;;;2.50;2.23;;;;;;;13.84;30.92;97672.63;4995046;28;20206;-71
2022/04/20 12:01:55;;;;;;;3.30;2.20;;;;;;;13.77;32.71;97674.69;4995158;28;20244;-71
2022/04/20 12:04:27;;;;;;;6.30;2.40;;;;;;;13.81;32.99;97673.94;4994563;28;20677;-71
2022/04/20 12:07:01;;;;;;;2.93;2.23;;;;;;;13.84;32.90;97678.78;4994636;28;20691;-71
2022/04/20 12:09:40;;;;;;;4.20;2.50;;;;;;;14.11;33.34;97674.28;4994615;28;20214;-71
2022/04/20 12:12:15;;;;;;;2.23;1.90;;;;;;;13.95;33.34;97677.03;4995126;28;20293;-71
2022/04/20 12:14:42;;;;;;;2.73;2.43;;;;;;;13.75;32.89;97668.78;4994338;28;20202;-71
2022/04/20 12:17:11;;;;;;;2.93;2.47;;;;;;;13.77;33.02;97662.13;4994591;28;20237;-70
2022/04/20 12:19:39;;;;;;;2.80;2.40;;;;;;;13.68;32.02;97665.47;4994913;28;20215;-70
2022/04/20 12:22:08;;;;;;;2.60;2.40;;;;;;;14.02;31.54;97659.75;4994772;28;20232;-70
2022/04/20 12:24:35;;;;;;;7.10;3.90;;;;;;;14.02;33.25;97654.41;4994329;28;20211;-69
2022/04/20 12:27:02;;;;;;;6.67;3.80;;;;;;;13.92;31.75;97650.81;4994467;28;20276;-70
2022/04/20 12:29:32;;;;;;;12.23;4.93;;;;;;;14.10;32.17;97651.28;4994539;28;20260;-69
2022/04/20 12:31:59;;;;;;;11.77;5.60;;;;;;;14.19;32.80;97651.66;4994495;28;20273;-68
2022/04/20 12:34:28;;;;;;;11.87;5.83;;;;;;;14.29;32.69;97649.91;4994818;28;20214;-69
2022/04/20 12:37:06;;;;;;;3.67;2.20;;;;;;;14.37;32.80;97651.31;4994388;28;20230;-69
2022/04/20 12:39:45;;;;;;;2.67;2.00;;;;;;;14.64;32.26;97650.28;4994380;28;20199;-69
2022/04/20 12:42:18;;;;;;;33.03;13.97;;;;;;;14.49;32.94;97639.44;4994553;28;20258;-69
2022/04/20 12:44:59;;;;;;;8.00;3.67;;;;;;;14.39;32.06;97644.66;4993992;28;20202;-69
2022/04/20 12:47:25;;;;;;;4.33;2.60;;;;;;;14.51;32.89;97650.69;4994385;28;20310;-70
2022/04/20 12:50:11;;;;;;;2.27;2.00;;;;;;;14.54;31.11;97644.84;4994373;28;20222;-69